Time;durP1;ratioP1;P1;durP2;ratioP2;P2;SDS_P1;SDS_P2;PMS_P1;PMS_P2;Temp;Humidity;BMP_temperature;BMP_pressure;BME280_temperature;BME280_humidity;BME280_pressure;Samples;Min_cycle;Max_cycle;Signal;HPM_P1;HPM_P2
2023/12/08 00:01:14;;;;;;;15.57;11.55;;;6.30;99.90;;;;;;5054571;28;20037;-56
2023/12/08 00:03:40;;;;;;;14.90;11.80;;;6.40;99.90;;;;;;5054411;28;20075;-55
2023/12/08 00:06:09;;;;;;;13.00;10.95;;;6.40;99.90;;;;;;5002642;28;20037;-55
2023/12/08 00:08:37;;;;;;;13.68;10.77;;;6.40;99.90;;;;;;5054609;28;20053;-56
2023/12/08 00:11:03;;;;;;;15.88;12.88;;;6.40;99.90;;;;;;5054252;28;20071;-54
2023/12/08 00:13:29;;;;;;;16.50;11.73;;;6.40;99.90;;;;;;5012059;28;20429;-53
2023/12/08 00:15:55;;;;;;;16.02;11.93;;;6.40;99.90;;;;;;5011959;28;20038;-53
2023/12/08 00:18:21;;;;;;;13.63;11.52;;;6.40;99.90;;;;;;5011999;28;20034;-56
2023/12/08 00:20:47;;;;;;;13.57;10.70;;;6.30;99.90;;;;;;5011985;28;20058;-53
2023/12/08 00:23:14;;;;;;;15.55;11.90;;;6.30;99.90;;;;;;5012033;28;20038;-54
2023/12/08 00:25:40;;;;;;;14.88;9.73;;;6.20;99.90;;;;;;5011932;28;20030;-54
2023/12/08 00:28:06;;;;;;;15.20;11.07;;;6.00;99.90;;;;;;5011933;28;20134;-55
2023/12/08 00:30:32;;;;;;;12.93;9.48;;;6.10;99.90;;;;;;5011904;28;20637;-54
2023/12/08 00:32:58;;;;;;;16.27;12.73;;;5.90;99.90;;;;;;4994246;28;20047;-54
2023/12/08 00:35:24;;;;;;;14.85;11.40;;;6.00;99.90;;;;;;4992339;28;20398;-55
2023/12/08 00:37:49;;;;;;;15.65;12.00;;;5.90;99.90;;;;;;4991910;28;20041;-54
2023/12/08 00:40:16;;;;;;;15.80;11.70;;;5.80;99.90;;;;;;4992221;28;20035;-54
2023/12/08 00:42:42;;;;;;;14.00;10.93;;;5.90;99.90;;;;;;4991760;28;20034;-54
2023/12/08 00:45:09;;;;;;;13.50;10.13;;;5.90;99.90;;;;;;5009306;28;20044;-56
2023/12/08 00:47:34;;;;;;;15.30;12.25;;;5.90;99.90;;;;;;5013964;28;20355;-55
2023/12/08 00:50:00;;;;;;;15.75;11.68;;;5.90;99.90;;;;;;5013773;28;20040;-54
2023/12/08 00:52:26;;;;;;;15.30;11.60;;;6.00;99.90;;;;;;5013832;28;20042;-55
2023/12/08 00:54:51;;;;;;;14.32;12.00;;;5.90;99.90;;;;;;5009683;28;20033;-55
2023/12/08 00:57:18;;;;;;;14.05;9.80;;;;;;;;;;5013629;28;20068;-55
2023/12/08 00:59:43;;;;;;;13.90;11.05;;;5.80;99.90;;;;;;5013635;28;20549;-55
2023/12/08 01:02:09;;;;;;;14.45;10.52;;;5.70;99.90;;;;;;5011529;28;20113;-54
2023/12/08 01:04:35;;;;;;;14.68;11.40;;;5.60;99.90;;;;;;5013639;28;20026;-55
2023/12/08 01:07:00;;;;;;;15.30;12.27;;;5.80;99.90;;;;;;5013897;28;20029;-56
2023/12/08 01:09:26;;;;;;;14.70;11.38;;;5.90;99.90;;;;;;5013635;28;20030;-57
2023/12/08 01:11:52;;;;;;;14.80;11.32;;;5.80;99.90;;;;;;5011183;28;20049;-57
2023/12/08 01:14:18;;;;;;;16.98;11.75;;;5.80;99.90;;;;;;5013499;28;20382;-53
2023/12/08 01:16:44;;;;;;;16.70;12.43;;;5.90;99.90;;;;;;5013822;28;20105;-57
2023/12/08 01:19:11;;;;;;;15.93;12.35;;;5.90;99.90;;;;;;5013277;28;20021;-56
2023/12/08 01:21:38;;;;;;;16.52;12.15;;;6.00;99.90;;;;;;5013211;28;20072;-55
2023/12/08 01:24:04;;;;;;;15.38;11.45;;;5.90;99.90;;;;;;5013591;28;20036;-54
2023/12/08 01:26:30;;;;;;;18.60;12.90;;;5.90;99.90;;;;;;4994727;28;20048;-55
2023/12/08 01:28:56;;;;;;;14.05;11.02;;;5.80;99.90;;;;;;5029372;28;20424;-55
2023/12/08 01:31:21;;;;;;;15.27;11.52;;;5.80;99.90;;;;;;5036758;28;20136;-53
2023/12/08 01:33:47;;;;;;;14.10;10.07;;;5.80;99.90;;;;;;5033947;28;20041;-54
2023/12/08 01:36:14;;;;;;;14.88;11.57;;;5.70;99.90;;;;;;5052871;28;20025;-54
2023/12/08 01:38:46;;;;;;;14.25;10.93;;;5.70;99.90;;;;;;5052622;28;20116;-55
2023/12/08 01:41:12;;;;;;;;;;;;;;;;;;5052992;28;20507;-53
2023/12/08 01:43:38;;;;;;;16.13;11.75;;;5.70;99.90;;;;;;5052647;28;19992;-56
2023/12/08 01:46:04;;;;;;;15.05;11.95;;;5.80;99.90;;;;;;5033511;28;20033;-56
2023/12/08 01:48:29;;;;;;;14.65;11.85;;;5.60;99.90;;;;;;5000898;28;20062;-55
2023/12/08 01:50:55;;;;;;;14.43;11.30;;;5.70;99.90;;;;;;5017070;28;20459;-56
2023/12/08 01:53:21;;;;;;;16.50;11.90;;;5.80;99.90;;;;;;5051560;28;20072;-54
2023/12/08 01:55:54;;;;;;;15.60;12.43;;;5.80;99.90;;;;;;5052052;28;20066;-56
2023/12/08 01:58:25;;;;;;;15.32;11.88;;;;;;;;;;5052235;28;20032;-55
2023/12/08 02:00:52;;;;;;;15.63;11.25;;;5.80;99.90;;;;;;5050913;28;20447;-54
2023/12/08 02:03:18;;;;;;;16.73;12.32;;;;;;;;;;5050755;28;20119;-57
2023/12/08 02:05:49;;;;;;;16.70;12.48;;;5.80;99.90;;;;;;5052216;28;20040;-54
2023/12/08 02:08:16;;;;;;;15.98;11.60;;;5.80;99.90;;;;;;5052264;28;20025;-54
2023/12/08 02:10:41;;;;;;;16.08;11.68;;;5.80;99.90;;;;;;5051942;28;20056;-55
2023/12/08 02:13:07;;;;;;;14.90;11.95;;;5.80;99.90;;;;;;5033270;28;20408;-55
2023/12/08 02:15:33;;;;;;;15.10;11.45;;;5.70;99.90;;;;;;5051092;28;20365;-57
2023/12/08 02:18:00;;;;;;;16.08;11.73;;;5.70;99.90;;;;;;5034807;28;20029;-56
2023/12/08 02:20:25;;;;;;;15.15;11.65;;;5.70;99.90;;;;;;5014336;28;20410;-57
2023/12/08 02:22:52;;;;;;;13.07;9.77;;;;;;;;;;5031870;28;20036;-57
2023/12/08 02:25:17;;;;;;;12.27;10.15;;;5.50;99.90;;;;;;5031949;28;20033;-57
2023/12/08 02:27:43;;;;;;;14.30;10.73;;;5.60;99.90;;;;;;5014194;28;20030;-55
2023/12/08 02:30:09;;;;;;;13.45;10.32;;;5.70;99.90;;;;;;5032169;28;20026;-54
2023/12/08 02:32:38;;;;;;;14.25;10.95;;;5.80;99.90;;;;;;4996947;28;20053;-55
2023/12/08 02:35:07;;;;;;;15.40;11.18;;;5.80;99.90;;;;;;5031541;28;20490;-57
2023/12/08 02:37:36;;;;;;;14.57;11.15;;;5.80;99.90;;;;;;5031803;28;20390;-57
2023/12/08 02:40:06;;;;;;;15.43;12.15;;;5.90;99.90;;;;;;5031669;28;20163;-57
2023/12/08 02:42:33;;;;;;;15.23;11.38;;;6.00;99.90;;;;;;5031834;28;20044;-55
2023/12/08 02:44:59;;;;;;;14.13;11.30;;;6.00;99.90;;;;;;5031607;28;20104;-54
2023/12/08 02:47:25;;;;;;;14.38;11.25;;;6.10;99.90;;;;;;5031935;28;20642;-54
2023/12/08 02:49:51;;;;;;;19.10;12.73;;;6.10;99.90;;;;;;5031753;28;20500;-56
2023/12/08 02:52:17;;;;;;;13.68;10.57;;;6.10;99.90;;;;;;5031617;28;20037;-58
2023/12/08 02:54:42;;;;;;;15.75;11.50;;;6.00;99.90;;;;;;5031915;28;20026;-58
2023/12/08 02:57:08;;;;;;;15.10;11.25;;;6.10;99.90;;;;;;5031583;28;20075;-56
2023/12/08 02:59:34;;;;;;;14.18;10.82;;;5.90;99.90;;;;;;5031568;28;20021;-55
2023/12/08 03:01:59;;;;;;;14.20;11.13;;;5.90;99.90;;;;;;5031766;28;20053;-55
2023/12/08 03:04:25;;;;;;;13.93;11.57;;;6.00;99.90;;;;;;5031421;28;20033;-56
2023/12/08 03:06:51;;;;;;;16.67;11.85;;;6.00;99.90;;;;;;5031922;28;20056;-55
2023/12/08 03:09:16;;;;;;;14.07;11.25;;;6.00;99.90;;;;;;5031505;28;20029;-57
2023/12/08 03:11:42;;;;;;;14.48;10.60;;;6.10;99.90;;;;;;5031448;28;20095;-57
2023/12/08 03:14:08;;;;;;;14.90;11.93;;;;;;;;;;5029388;28;20092;-55
2023/12/08 03:16:34;;;;;;;15.40;12.00;;;6.10;99.90;;;;;;5031505;28;20041;-57
2023/12/08 03:19:00;;;;;;;16.10;12.00;;;6.10;99.90;;;;;;5034991;28;20021;-56
2023/12/08 03:21:27;;;;;;;14.68;11.55;;;5.80;99.90;;;;;;5035256;28;20521;-55
2023/12/08 03:23:53;;;;;;;15.32;10.68;;;5.80;99.90;;;;;;5035212;28;20385;-55
2023/12/08 03:26:19;;;;;;;15.88;12.20;;;5.80;99.90;;;;;;5035726;28;20040;-54
2023/12/08 03:28:45;;;;;;;15.65;11.88;;;5.80;99.90;;;;;;5012657;28;20030;-56
2023/12/08 03:31:23;;;;;;;15.95;12.10;;;5.90;99.90;;;;;;4995967;28;20232;-57
2023/12/08 03:33:49;;;;;;;13.57;11.02;;;6.00;99.90;;;;;;5012818;28;20077;-58
2023/12/08 03:36:15;;;;;;;15.77;11.82;;;6.00;99.90;;;;;;5013029;28;20077;-57
2023/12/08 03:38:40;;;;;;;15.20;11.73;;;6.00;99.90;;;;;;5012810;28;20456;-54
2023/12/08 03:41:06;;;;;;;16.65;12.15;;;6.10;99.90;;;;;;5012706;28;20060;-56
2023/12/08 03:43:32;;;;;;;15.95;11.93;;;6.10;99.90;;;;;;5012724;28;20041;-56
2023/12/08 03:45:57;;;;;;;17.13;12.65;;;6.10;99.90;;;;;;4963472;28;20038;-57
2023/12/08 03:48:23;;;;;;;14.48;11.60;;;6.10;99.90;;;;;;5012626;28;20042;-55
2023/12/08 03:50:49;;;;;;;15.85;11.60;;;6.10;99.90;;;;;;5012505;28;20033;-54
2023/12/08 03:53:14;;;;;;;15.77;12.27;;;6.20;99.90;;;;;;5012621;28;20100;-58
2023/12/08 03:55:40;;;;;;;15.93;12.60;;;6.20;99.90;;;;;;5012521;28;20075;-55
2023/12/08 03:58:06;;;;;;;15.27;11.43;;;6.20;99.90;;;;;;5012323;28;20026;-56
2023/12/08 04:00:31;;;;;;;20.23;12.55;;;6.20;99.90;;;;;;5030977;28;20125;-55
2023/12/08 04:02:57;;;;;;;16.25;11.80;;;6.20;99.90;;;;;;5034617;28;20029;-56
2023/12/08 04:05:23;;;;;;;16.95;12.45;;;6.20;99.90;;;;;;5034583;28;20029;-54
2023/12/08 04:07:49;;;;;;;15.05;12.15;;;6.20;99.90;;;;;;5015730;28;20036;-54
2023/12/08 04:10:14;;;;;;;16.33;12.52;;;6.20;99.90;;;;;;5015645;28;20553;-55
2023/12/08 04:12:40;;;;;;;19.30;12.45;;;6.30;99.90;;;;;;5034426;28;20041;-56
2023/12/08 04:15:06;;;;;;;15.13;12.10;;;6.30;99.90;;;;;;4999212;28;20069;-55
2023/12/08 04:17:32;;;;;;;14.13;11.48;;;6.30;99.90;;;;;;5015789;28;20037;-55
2023/12/08 04:19:58;;;;;;;24.08;14.55;;;6.30;99.90;;;;;;5015754;28;20046;-57
2023/12/08 04:22:24;;;;;;;22.63;14.68;;;6.30;99.90;;;;;;5015563;28;20060;-54
2023/12/08 04:24:49;;;;;;;17.65;11.88;;;6.40;99.90;;;;;;5015415;28;20083;-54
2023/12/08 04:27:15;;;;;;;16.45;13.30;;;6.40;99.90;;;;;;5034026;28;20032;-54
2023/12/08 04:29:40;;;;;;;16.17;12.57;;;6.50;99.90;;;;;;5038169;28;20021;-55
2023/12/08 04:32:06;;;;;;;15.20;12.43;;;6.50;99.90;;;;;;5018501;28;20443;-54
2023/12/08 04:34:32;;;;;;;15.02;11.90;;;;;;;;;;5053981;28;20028;-55
2023/12/08 04:36:58;;;;;;;14.43;11.35;;;6.60;99.90;;;;;;5035053;28;20083;-53
2023/12/08 04:39:24;;;;;;;16.30;11.13;;;6.70;99.90;;;;;;5053670;28;20052;-55
2023/12/08 04:41:49;;;;;;;18.55;13.30;;;6.70;99.90;;;;;;5053682;28;20032;-56
2023/12/08 04:44:15;;;;;;;16.75;11.60;;;;;;;;;;5053841;28;20025;-53
2023/12/08 04:46:41;;;;;;;16.92;11.73;;;;;;;;;;5053542;28;20029;-56
2023/12/08 04:49:08;;;;;;;15.48;12.02;;;;;;;;;;5053600;28;20029;-54
2023/12/08 04:51:35;;;;;;;15.48;10.75;;;;;;;;;;5053570;28;20037;-55
2023/12/08 04:54:01;;;;;;;15.20;11.38;;;7.20;99.90;;;;;;5034952;28;20404;-57
2023/12/08 04:56:27;;;;;;;13.30;10.30;;;7.10;99.90;;;;;;5053378;28;20032;-56
2023/12/08 04:58:53;;;;;;;14.38;10.65;;;7.30;99.90;;;;;;5053266;28;20037;-54
2023/12/08 05:01:19;;;;;;;15.98;10.65;;;;;;;;;;5047978;28;20023;-54
2023/12/08 05:03:45;;;;;;;17.17;11.35;;;;;;;;;;5043645;28;20060;-52
2023/12/08 05:06:10;;;;;;;14.30;10.98;;;7.10;99.90;;;;;;5053229;28;20025;-52
2023/12/08 05:08:37;;;;;;;13.90;11.07;;;;;;;;;;5053204;28;20079;-55
2023/12/08 05:11:03;;;;;;;14.30;11.07;;;;;;;;;;5053371;28;20056;-54
2023/12/08 05:13:28;;;;;;;18.52;12.35;;;7.10;99.90;;;;;;5053376;28;20032;-52
2023/12/08 05:15:54;;;;;;;17.25;11.75;;;7.00;99.90;;;;;;5053070;28;20025;-54
2023/12/08 05:18:20;;;;;;;15.40;11.38;;;6.90;99.90;;;;;;5053261;28;20086;-51
2023/12/08 05:20:45;;;;;;;16.85;11.23;;;6.90;99.90;;;;;;5041703;28;20441;-56
2023/12/08 05:23:12;;;;;;;15.45;10.82;;;;;;;;;;5036141;28;20504;-52
2023/12/08 05:25:38;;;;;;;14.65;10.85;;;;;;;;;;5038133;28;20033;-54
2023/12/08 05:28:04;;;;;;;20.70;11.90;;;;;;;;;;5052647;28;20095;-52
2023/12/08 05:30:31;;;;;;;16.95;10.82;;;6.70;99.90;;;;;;5052757;28;20158;-53
2023/12/08 05:32:56;;;;;;;20.23;11.27;;;6.70;99.90;;;;;;5052805;28;20076;-51
2023/12/08 05:35:22;;;;;;;18.55;11.65;;;;;;;;;;5052686;28;20083;-52
2023/12/08 05:37:49;;;;;;;15.98;10.13;;;;;;;;;;5052873;28;20032;-52
2023/12/08 05:40:15;;;;;;;17.20;11.23;;;;;;;;;;5052467;28;20033;-53
2023/12/08 05:42:41;;;;;;;14.82;10.20;;;;;;;;;;5051986;28;20044;-54
2023/12/08 05:45:07;;;;;;;16.27;10.02;;;;;;;;;;5041302;28;20495;-52
2023/12/08 05:47:34;;;;;;;17.23;10.55;;;;;;;;;;5042004;28;20102;-52
2023/12/08 05:50:00;;;;;;;14.30;10.25;;;;;;;;;;5042444;28;20488;-52
2023/12/08 05:52:26;;;;;;;18.38;11.30;;;;;;;;;;5044339;28;20052;-54
2023/12/08 05:54:52;;;;;;;13.80;10.48;;;;;;;;;;5034259;28;20025;-53
2023/12/08 05:57:18;;;;;;;15.60;11.68;;;;;;;;;;5052510;28;20036;-53
2023/12/08 05:59:44;;;;;;;17.23;11.45;;;;;;;;;;5052411;28;20024;-52
2023/12/08 06:02:09;;;;;;;16.35;11.50;;;7.00;99.90;;;;;;5017323;28;20053;-53
2023/12/08 06:04:36;;;;;;;14.95;11.73;;;;;;;;;;5052160;28;20515;-55
2023/12/08 06:07:02;;;;;;;14.07;11.18;;;;;;;;;;5052472;28;20032;-52
2023/12/08 06:09:28;;;;;;;18.25;11.52;;;;;;;;;;5017254;28;20404;-53
2023/12/08 06:11:54;;;;;;;17.20;10.98;;;7.10;99.90;;;;;;5052153;28;20166;-53
2023/12/08 06:14:20;;;;;;;17.48;11.27;;;7.10;99.90;;;;;;5052165;28;20537;-54
2023/12/08 06:16:46;;;;;;;16.25;11.52;;;;;;;;;;5052408;28;20060;-52
2023/12/08 06:19:12;;;;;;;16.88;12.60;;;;;;;;;;5052282;28;20112;-54
2023/12/08 06:21:38;;;;;;;16.58;12.13;;;;;;;;;;5051893;28;20055;-53
2023/12/08 06:24:04;;;;;;;14.95;11.55;;;;;;;;;;5052057;28;20087;-53
2023/12/08 06:26:31;;;;;;;15.82;11.70;;;;;;;;;;5051902;28;20060;-53
2023/12/08 06:28:56;;;;;;;12.90;10.60;;;7.50;99.90;;;;;;5051619;28;20033;-52
2023/12/08 06:31:22;;;;;;;18.63;11.40;;;7.20;99.90;;;;;;5032745;28;20052;-54
2023/12/08 06:33:48;;;;;;;13.00;10.70;;;7.30;99.90;;;;;;5051816;28;20381;-53
2023/12/08 06:36:15;;;;;;;17.67;11.32;;;7.30;99.90;;;;;;5051708;28;20025;-54
2023/12/08 06:38:41;;;;;;;15.15;11.10;;;7.30;99.90;;;;;;5051857;28;20060;-54
2023/12/08 06:41:07;;;;;;;16.65;11.30;;;7.30;99.90;;;;;;5051796;28;20029;-52
2023/12/08 06:43:33;;;;;;;22.42;11.27;;;7.30;99.90;;;;;;5051530;28;20032;-53
2023/12/08 06:46:01;;;;;;;17.20;11.63;;;7.20;99.90;;;;;;5051424;28;20075;-55
2023/12/08 06:48:27;;;;;;;17.55;11.52;;;;;;;;;;5051953;28;20163;-53
2023/12/08 06:50:53;;;;;;;14.32;10.18;;;7.10;99.90;;;;;;5051487;28;20477;-53
2023/12/08 06:53:18;;;;;;;12.20;9.88;;;7.20;99.90;;;;;;5035721;28;20044;-53
2023/12/08 06:55:44;;;;;;;19.17;10.60;;;7.20;99.90;;;;;;5055188;28;20488;-56
2023/12/08 06:58:10;;;;;;;13.98;10.52;;;7.20;99.90;;;;;;5054987;28;20120;-55
2023/12/08 07:00:36;;;;;;;13.70;10.77;;;7.10;99.90;;;;;;5036253;28;20033;-55
2023/12/08 07:03:02;;;;;;;18.73;11.23;;;7.20;99.90;;;;;;5055140;28;20102;-52
2023/12/08 07:05:27;;;;;;;19.00;11.43;;;7.10;99.90;;;;;;5017863;28;20511;-53
2023/12/08 07:07:55;;;;;;;15.13;10.60;;;7.10;99.90;;;;;;5055229;28;20029;-54
2023/12/08 07:10:20;;;;;;;14.25;10.10;;;7.00;99.90;;;;;;5055246;28;20473;-55
2023/12/08 07:12:46;;;;;;;27.95;16.63;;;6.90;99.90;;;;;;5055342;28;20033;-55
2023/12/08 07:15:12;;;;;;;145.63;77.75;;;7.00;99.90;;;;;;5055202;28;20508;-54
2023/12/08 07:17:39;;;;;;;195.43;91.70;;;6.90;99.90;;;;;;5055424;28;20021;-53
2023/12/08 07:20:06;;;;;;;79.65;49.10;;;6.70;99.90;;;;;;5036561;28;20079;-55
2023/12/08 07:22:32;;;;;;;44.60;28.98;;;6.60;99.90;;;;;;5004013;28;20041;-53
2023/12/08 07:24:59;;;;;;;147.90;61.65;;;6.70;99.90;;;;;;5025273;28;20034;-53
2023/12/08 07:27:24;;;;;;;78.15;39.13;;;6.70;99.90;;;;;;5037746;28;20030;-53
2023/12/08 07:29:50;;;;;;;51.33;33.53;;;6.70;99.90;;;;;;5042909;28;20147;-51
2023/12/08 07:32:16;;;;;;;262.75;88.25;;;;;;;;;;5043986;28;20053;-55
2023/12/08 07:34:42;;;;;;;99.13;38.95;;;6.70;99.90;;;;;;5043504;28;20021;-52
2023/12/08 07:37:08;;;;;;;37.60;20.05;;;6.70;99.90;;;;;;5045333;28;20388;-55
2023/12/08 07:39:33;;;;;;;54.90;23.42;;;6.80;99.90;;;;;;5043741;28;20029;-54
2023/12/08 07:41:59;;;;;;;113.18;37.53;;;6.90;99.90;;;;;;5044904;28;20102;-54
2023/12/08 07:44:25;;;;;;;75.03;29.80;;;6.80;99.90;;;;;;5052212;28;20552;-54
2023/12/08 07:46:51;;;;;;;25.33;15.80;;;6.70;99.90;;;;;;5026993;28;20045;-55
2023/12/08 07:49:16;;;;;;;61.38;28.48;;;6.70;99.90;;;;;;5034733;28;20056;-52
2023/12/08 07:51:42;;;;;;;44.53;23.50;;;6.80;99.90;;;;;;5034560;28;20033;-54
2023/12/08 07:54:08;;;;;;;44.85;23.67;;;6.70;99.90;;;;;;5047621;28;20473;-52
2023/12/08 07:56:33;;;;;;;36.90;22.60;;;6.80;99.90;;;;;;5053018;28;20075;-52
2023/12/08 07:59:00;;;;;;;69.43;33.17;;;6.90;99.90;;;;;;5054047;28;20039;-59
2023/12/08 08:01:26;;;;;;;45.40;23.77;;;7.00;99.90;;;;;;5035779;28;20113;-52
2023/12/08 08:03:51;;;;;;;23.67;16.23;;;6.70;99.90;;;;;;5033584;28;20108;-56
2023/12/08 08:06:17;;;;;;;32.65;19.75;;;6.70;99.90;;;;;;5040172;28;20031;-55
2023/12/08 08:08:43;;;;;;;25.48;19.00;;;6.70;99.90;;;;;;4997754;28;20047;-55
2023/12/08 08:11:09;;;;;;;27.92;15.80;;;6.80;99.90;;;;;;4998448;28;20033;-54
2023/12/08 08:13:35;;;;;;;45.70;24.67;;;6.90;99.90;;;;;;5033471;28;20041;-52
2023/12/08 08:16:01;;;;;;;26.83;19.35;;;6.90;99.90;;;;;;5037303;28;20025;-57
2023/12/08 08:18:29;;;;;;;38.65;21.95;;;6.90;99.90;;;;;;5053990;28;20044;-50
2023/12/08 08:20:55;;;;;;;25.33;16.33;;;6.80;99.90;;;;;;5054512;28;20074;-55
2023/12/08 08:23:21;;;;;;;24.05;14.38;;;6.90;99.90;;;;;;5048418;28;20049;-56
2023/12/08 08:25:47;;;;;;;25.13;14.48;;;6.90;99.90;;;;;;5042714;28;20024;-49
2023/12/08 08:28:13;;;;;;;22.58;14.35;;;7.00;99.90;;;;;;5041761;28;20484;-55
2023/12/08 08:30:42;;;;;;;44.38;28.05;;;6.90;99.90;;;;;;5040146;28;20036;-53
2023/12/08 08:33:08;;;;;;;39.75;27.25;;;7.00;99.90;;;;;;5044251;28;20186;-51
2023/12/08 08:35:34;;;;;;;24.92;17.35;;;6.90;99.90;;;;;;5043405;28;20108;-55
2023/12/08 08:38:00;;;;;;;23.00;14.82;;;6.70;99.90;;;;;;5000158;28;20029;-52
2023/12/08 08:40:26;;;;;;;21.13;14.55;;;6.80;99.90;;;;;;5048254;28;20056;-52
2023/12/08 08:42:52;;;;;;;18.83;13.65;;;6.80;99.90;;;;;;5043013;28;20480;-52
2023/12/08 08:45:19;;;;;;;21.25;15.18;;;6.80;99.90;;;;;;5046746;28;20520;-52
2023/12/08 08:47:45;;;;;;;25.38;15.98;;;6.70;99.90;;;;;;5047012;28;20056;-55
2023/12/08 08:50:11;;;;;;;29.50;19.35;;;6.90;99.90;;;;;;5058342;28;20025;-51
2023/12/08 08:52:37;;;;;;;28.27;16.25;;;6.90;99.90;;;;;;5056042;28;20552;-51
2023/12/08 08:55:04;;;;;;;18.48;14.70;;;7.00;99.90;;;;;;5055806;28;20036;-54
2023/12/08 08:57:30;;;;;;;21.52;16.02;;;6.80;99.90;;;;;;5052685;28;20029;-57
2023/12/08 08:59:56;;;;;;;27.58;15.98;;;6.90;99.90;;;;;;5039264;28;20032;-53
2023/12/08 09:02:22;;;;;;;44.88;27.70;;;7.00;99.90;;;;;;5053932;28;20110;-54
2023/12/08 09:04:47;;;;;;;39.30;24.50;;;7.10;99.90;;;;;;5051764;28;20039;-52
2023/12/08 09:07:13;;;;;;;31.65;23.70;;;7.10;99.90;;;;;;5053315;28;20036;-55
2023/12/08 09:09:39;;;;;;;23.92;16.42;;;7.20;99.90;;;;;;5052343;28;20032;-55
2023/12/08 09:12:05;;;;;;;22.35;19.40;;;7.10;99.90;;;;;;5000933;28;20041;-54
2023/12/08 09:14:33;;;;;;;24.17;17.92;;;7.10;99.90;;;;;;5014899;28;20115;-52
2023/12/08 09:17:02;;;;;;;19.80;16.98;;;7.10;99.90;;;;;;5062747;28;20029;-54
2023/12/08 09:19:28;;;;;;;18.63;15.10;;;7.10;99.90;;;;;;5041412;28;20072;-54
2023/12/08 09:21:54;;;;;;;24.02;16.67;;;7.10;99.90;;;;;;5054960;28;20059;-54
2023/12/08 09:24:20;;;;;;;24.85;16.30;;;7.10;99.90;;;;;;5049846;28;20025;-56
2023/12/08 09:26:46;;;;;;;29.67;16.48;;;7.10;99.90;;;;;;5054742;28;20031;-56
2023/12/08 09:29:11;;;;;;;22.02;15.40;;;7.10;99.90;;;;;;5018070;28;20029;-54
2023/12/08 09:31:37;;;;;;;22.58;15.27;;;7.20;99.90;;;;;;5009804;28;20053;-53
2023/12/08 09:34:03;;;;;;;23.27;16.15;;;7.20;99.90;;;;;;4984272;28;20041;-57
2023/12/08 09:36:28;;;;;;;19.63;14.45;;;7.10;99.90;;;;;;5001234;28;20094;-55
2023/12/08 09:38:54;;;;;;;22.63;16.08;;;7.10;99.90;;;;;;5032216;28;20036;-57
2023/12/08 09:41:20;;;;;;;27.17;16.15;;;7.20;99.90;;;;;;5020795;28;20045;-55
2023/12/08 09:43:53;;;;;;;37.00;19.05;;;7.20;99.90;;;;;;5031956;28;20026;-55
2023/12/08 09:46:20;;;;;;;22.73;15.52;;;7.20;99.90;;;;;;5031799;28;20033;-53
2023/12/08 09:48:47;;;;;;;23.77;16.90;;;7.20;99.90;;;;;;5001725;28;20386;-53
2023/12/08 09:51:15;;;;;;;29.90;18.88;;;7.20;99.90;;;;;;5000321;28;20057;-55
2023/12/08 09:53:42;;;;;;;146.43;49.17;;;7.30;99.90;;;;;;5024975;28;20037;-55
2023/12/08 09:56:09;;;;;;;116.28;38.80;;;7.30;99.90;;;;;;4981455;28;20037;-52
2023/12/08 09:58:36;;;;;;;84.43;33.13;;;7.40;99.90;;;;;;5033117;28;20048;-57
2023/12/08 10:01:04;;;;;;;32.45;19.92;;;7.40;99.90;;;;;;5034502;28;20128;-52
2023/12/08 10:03:30;;;;;;;35.00;20.65;;;7.50;99.90;;;;;;5030760;28;20088;-56
2023/12/08 10:05:56;;;;;;;22.27;16.10;;;7.70;99.90;;;;;;4980014;28;20540;-55
2023/12/08 10:08:24;;;;;;;26.05;17.17;;;7.60;99.90;;;;;;5032518;28;20468;-56
2023/12/08 10:10:50;;;;;;;70.80;27.02;;;7.60;99.90;;;;;;5033702;28;20041;-55
2023/12/08 10:13:16;;;;;;;33.72;19.23;;;7.60;99.90;;;;;;4960940;28;20441;-57
2023/12/08 10:15:44;;;;;;;20.98;16.52;;;7.50;99.90;;;;;;5039504;28;20065;-56
2023/12/08 10:18:25;;;;;;;28.00;17.13;;;7.50;99.90;;;;;;5005791;28;20029;-56
2023/12/08 10:20:52;;;;;;;25.38;18.75;;;7.50;99.90;;;;;;5029984;28;20071;-53
2023/12/08 10:23:21;;;;;;;84.03;31.85;;;7.40;99.90;;;;;;4997132;28;20050;-56
2023/12/08 10:25:48;;;;;;;37.45;18.70;;;7.30;99.90;;;;;;4995649;28;20033;-57
2023/12/08 10:28:14;;;;;;;16.25;13.75;;;7.50;99.90;;;;;;4927348;29;20613;-55
2023/12/08 10:30:46;;;;;;;30.95;16.35;;;7.50;99.90;;;;;;4865336;29;20095;-57
2023/12/08 10:33:21;;;;;;;18.02;14.65;;;7.60;99.90;;;;;;4947590;29;20049;-54
2023/12/08 10:35:47;;;;;;;20.80;15.25;;;7.70;99.90;;;;;;4917651;29;20507;-55
2023/12/08 10:38:13;;;;;;;32.92;18.77;;;7.70;99.90;;;;;;4950221;29;20051;-55
2023/12/08 10:40:52;;;;;;;21.08;16.00;;;7.80;99.90;;;;;;4945959;29;20435;-54
2023/12/08 10:43:28;;;;;;;20.98;16.33;;;7.80;99.90;;;;;;4949717;29;20051;-53
2023/12/08 10:45:54;;;;;;;22.92;16.15;;;7.80;99.90;;;;;;4950183;29;20043;-57
2023/12/08 10:48:20;;;;;;;25.10;16.35;;;7.90;99.90;;;;;;4946915;29;20039;-55
2023/12/08 10:50:51;;;;;;;22.23;15.60;;;8.00;99.90;;;;;;4949845;29;20129;-56
2023/12/08 10:53:18;;;;;;;20.60;15.40;;;8.00;99.90;;;;;;4949983;29;20054;-56
2023/12/08 10:56:00;;;;;;;20.73;16.02;;;8.00;99.90;;;;;;4949810;29;20067;-55
2023/12/08 10:58:28;;;;;;;22.90;16.10;;;8.00;99.90;;;;;;4966738;28;20041;-56
2023/12/08 11:00:55;;;;;;;23.48;17.13;;;8.00;99.90;;;;;;5048065;28;20033;-53
2023/12/08 11:03:23;;;;;;;26.20;17.83;;;8.00;99.90;;;;;;5059340;28;20055;-52
2023/12/08 11:06:11;;;;;;;25.65;17.48;;;8.00;99.90;;;;;;5056365;28;20047;-54
2023/12/08 11:08:41;;;;;;;30.70;21.05;;;7.90;99.90;;;;;;5056193;28;20032;-56
2023/12/08 11:11:08;;;;;;;193.07;56.40;;;8.00;99.90;;;;;;5052058;28;20082;-55
2023/12/08 11:13:40;;;;;;;34.25;21.98;;;7.80;99.90;;;;;;5051025;28;20098;-54
2023/12/08 11:16:32;;;;;;;29.00;18.75;;;7.90;99.90;;;;;;5055077;28;20037;-54
2023/12/08 11:18:59;;;;;;;31.48;20.70;;;7.90;99.90;;;;;;5046448;28;20033;-56
2023/12/08 11:21:26;;;;;;;97.30;33.70;;;7.90;99.90;;;;;;5050862;28;20480;-53
2023/12/08 11:23:53;;;;;;;359.50;91.93;;;8.00;99.90;;;;;;5057931;28;20360;-54
2023/12/08 11:26:38;;;;;;;103.50;36.38;;;7.90;99.90;;;;;;5047757;28;20037;-54
2023/12/08 11:29:32;;;;;;;44.60;22.83;;;8.10;99.90;;;;;;5046800;28;20036;-53
2023/12/08 11:32:18;;;;;;;175.75;57.72;;;8.20;99.90;;;;;;5041600;28;20141;-56
2023/12/08 11:34:55;;;;;;;29.58;19.08;;;8.10;99.90;;;;;;5028807;28;20108;-57
2023/12/08 11:37:22;;;;;;;25.00;19.00;;;8.30;99.90;;;;;;4992960;28;20136;-53
2023/12/08 11:39:48;;;;;;;22.60;17.48;;;8.40;99.90;;;;;;5034409;28;20073;-55
2023/12/08 11:42:16;;;;;;;20.95;15.90;;;8.50;99.90;;;;;;5034178;28;20478;-54
2023/12/08 11:44:46;;;;;;;24.23;17.92;;;8.50;99.90;;;;;;5006654;28;20047;-54
2023/12/08 11:47:14;;;;;;;34.47;21.88;;;8.50;99.90;;;;;;4999118;28;20099;-55
2023/12/08 11:49:47;;;;;;;39.88;22.25;;;8.60;99.90;;;;;;5030442;28;20026;-55
2023/12/08 11:52:18;;;;;;;23.35;16.85;;;8.60;99.90;;;;;;5030878;28;20037;-57
2023/12/08 11:55:00;;;;;;;42.45;23.48;;;8.50;99.90;;;;;;5035661;28;20487;-53
2023/12/08 11:57:27;;;;;;;21.00;15.77;;;8.40;99.90;;;;;;4997977;28;20095;-53
2023/12/08 11:59:54;;;;;;;34.53;22.38;;;8.20;99.90;;;;;;5038256;28;20021;-55
2023/12/08 12:02:20;;;;;;;34.65;19.10;;;8.30;99.90;;;;;;5034005;28;20029;-54
2023/12/08 12:04:47;;;;;;;34.45;22.38;;;8.20;99.90;;;;;;5035131;28;20435;-56
2023/12/08 12:07:13;;;;;;;37.30;24.20;;;8.40;99.90;;;;;;4981204;28;20046;-55
2023/12/08 12:09:41;;;;;;;23.92;18.90;;;8.40;99.90;;;;;;5037017;28;20484;-54
2023/12/08 12:12:14;;;;;;;30.90;22.77;;;8.40;99.90;;;;;;5035856;28;20065;-57
2023/12/08 12:14:45;;;;;;;34.63;24.33;;;8.30;99.90;;;;;;5034272;28;20042;-57
2023/12/08 12:17:12;;;;;;;33.40;24.45;;;8.20;99.90;;;;;;4982465;28;20382;-52
2023/12/08 12:19:38;;;;;;;27.70;21.33;;;8.20;99.90;;;;;;5036699;28;20473;-54
2023/12/08 12:22:04;;;;;;;31.20;22.77;;;8.00;99.90;;;;;;5040718;28;20100;-55
2023/12/08 12:24:30;;;;;;;28.65;21.85;;;8.00;99.90;;;;;;5038708;28;20108;-52
2023/12/08 12:26:56;;;;;;;27.63;21.63;;;7.70;99.90;;;;;;5034382;28;20029;-57
2023/12/08 12:29:23;;;;;;;29.23;21.67;;;7.80;99.90;;;;;;5013859;28;20037;-54
2023/12/08 12:31:49;;;;;;;25.95;20.65;;;7.80;99.90;;;;;;5032403;28;20050;-54
2023/12/08 12:34:21;;;;;;;30.05;22.80;;;7.80;99.90;;;;;;5033713;28;20477;-56
2023/12/08 12:36:47;;;;;;;28.67;21.42;;;7.60;99.90;;;;;;5035733;28;20036;-54
2023/12/08 12:39:13;;;;;;;24.05;18.63;;;7.80;99.90;;;;;;5040953;28;20396;-54
2023/12/08 12:41:39;;;;;;;26.73;19.52;;;8.10;99.90;;;;;;5035019;28;20071;-57
2023/12/08 12:44:06;;;;;;;26.73;20.42;;;8.00;99.90;;;;;;4995312;28;20558;-58
2023/12/08 12:46:31;;;;;;;22.15;18.02;;;8.20;99.90;;;;;;5032969;28;20148;-57